Terminal Aerodrome Forecast
Issued by NWS Jackson, KY

Home | Current Version | Previous Version | Text Only | Print | Product List | Glossary On
Versions: 1 2 3 4 5 6 7 8 9 10 11 12 13 14 15
000
FTUS43 KJKL 230541
TAFLOZ
TAF
KLOZ 230541Z 2306/2406 24005KT P6SM FEW060 FEW150
     FM231300 22009G18KT P6SM VCTS SCT040CB BKN080
     FM232100 26008KT P6SM BKN150=

USA.gov is the U.S. government's official web portal to all federal, state and local government web resources and services.